createdAt,value
2022-11-03T00:01:50.874Z,98029.00
2022-11-03T00:04:21.961Z,98014.00
2022-11-03T00:06:53.295Z,98023.00
2022-11-03T00:09:23.657Z,98030.00
2022-11-03T00:11:53.376Z,98024.00
2022-11-03T00:14:21.734Z,98032.00
2022-11-03T00:16:50.590Z,98018.00
2022-11-03T00:19:18.731Z,98022.00
2022-11-03T00:21:47.857Z,98016.00
2022-11-03T00:24:16.003Z,98023.00
2022-11-03T00:26:44.152Z,98021.00
2022-11-03T00:29:15.364Z,98013.00
2022-11-03T00:31:45.576Z,98002.00
2022-11-03T00:34:13.834Z,98003.00
2022-11-03T00:36:43.855Z,98010.00
2022-11-03T00:39:13.586Z,98002.00
2022-11-03T00:41:42.151Z,97999.00
2022-11-03T00:44:11.066Z,97991.00
2022-11-03T00:46:40.585Z,97987.00
2022-11-03T00:49:08.818Z,97994.00
2022-11-03T00:51:37.259Z,97993.00
2022-11-03T00:54:07.250Z,97982.00
2022-11-03T00:56:38.825Z,97987.00
2022-11-03T00:59:09.318Z,97981.00
2022-11-03T01:01:45.785Z,97973.00
2022-11-03T01:04:33.121Z,97974.00
2022-11-03T01:07:02.183Z,97977.00
2022-11-03T01:09:32.624Z,97959.00
2022-11-03T01:12:04.581Z,97965.00
2022-11-03T01:14:36.162Z,97965.00
2022-11-03T01:17:06.621Z,97965.00
2022-11-03T01:19:34.803Z,97963.00
2022-11-03T01:22:06.449Z,97970.00
2022-11-03T01:24:38.277Z,97953.00
2022-11-03T01:27:06.389Z,97954.00
2022-11-03T01:29:34.615Z,97947.00
2022-11-03T01:32:02.795Z,97951.00
2022-11-03T01:34:32.789Z,97936.00
2022-11-03T01:37:00.965Z,97942.00
2022-11-03T01:39:29.173Z,97926.00
2022-11-03T01:41:57.468Z,97937.00
2022-11-03T01:44:37.626Z,97923.00
2022-11-03T01:47:20.476Z,97924.00
2022-11-03T01:49:55.816Z,97920.00
2022-11-03T01:52:31.613Z,97933.00
2022-11-03T01:55:09.923Z,97919.00
2022-11-03T01:57:44.657Z,97923.00
2022-11-03T02:00:14.523Z,97924.00
2022-11-03T02:02:45.047Z,97928.00
2022-11-03T02:05:17.536Z,97924.00
2022-11-03T02:07:53.459Z,97914.00
2022-11-03T02:10:22.063Z,97912.00
2022-11-03T02:12:50.569Z,97899.00
2022-11-03T02:15:22.519Z,97898.00
2022-11-03T02:17:54.895Z,97908.00
2022-11-03T02:20:29.123Z,97902.00
2022-11-03T02:23:25.598Z,97902.00
2022-11-03T02:25:58.342Z,97893.00
2022-11-03T02:28:30.489Z,97883.00
2022-11-03T02:31:11.147Z,97892.00
2022-11-03T02:33:50.944Z,97880.00
2022-11-03T02:36:25.984Z,97873.00
2022-11-03T02:39:01.125Z,97877.00
2022-11-03T02:41:35.399Z,97880.00
2022-11-03T02:44:06.316Z,97853.00
2022-11-03T02:46:37.086Z,97862.00
2022-11-03T02:49:05.218Z,97863.00
2022-11-03T02:51:34.769Z,97866.00
2022-11-03T02:54:10.112Z,97858.00
2022-11-03T02:56:49.406Z,97860.00
2022-11-03T02:59:23.744Z,97853.00
2022-11-03T03:02:00.563Z,97856.00
2022-11-03T03:04:35.623Z,97848.00
2022-11-03T03:07:10.888Z,97854.00
2022-11-03T03:09:45.262Z,97831.00
2022-11-03T03:12:20.629Z,97838.00
2022-11-03T03:14:51.877Z,97833.00
2022-11-03T03:17:31.921Z,97826.00
2022-11-03T03:20:06.349Z,97829.00
2022-11-03T03:22:44.065Z,97829.00
2022-11-03T03:25:18.383Z,97825.00
2022-11-03T03:27:53.710Z,97827.00
2022-11-03T03:30:22.004Z,97826.00
2022-11-03T03:32:53.236Z,97826.00
2022-11-03T03:35:27.733Z,97819.00
2022-11-03T03:38:04.458Z,97818.00
2022-11-03T03:40:38.796Z,97813.00
2022-11-03T03:43:12.653Z,97801.00
2022-11-03T03:45:43.925Z,97816.00
2022-11-03T03:48:13.932Z,97818.00
2022-11-03T03:50:45.791Z,97804.00
2022-11-03T03:53:14.301Z,97807.00
2022-11-03T03:55:46.689Z,97809.00
2022-11-03T03:58:17.472Z,97799.00
2022-11-03T04:00:45.963Z,97794.00
2022-11-03T04:03:19.236Z,97790.00
2022-11-03T04:05:47.940Z,97793.00
2022-11-03T04:08:17.938Z,97789.00
2022-11-03T04:11:07.434Z,97786.00
2022-11-03T04:13:54.384Z,97784.00
2022-11-03T04:16:39.873Z,97786.00
2022-11-03T04:19:27.890Z,97789.00
2022-11-03T04:22:13.810Z,97778.00
2022-11-03T04:24:42.027Z,97785.00
2022-11-03T04:27:28.520Z,97780.00
2022-11-03T04:30:04.210Z,97774.00
2022-11-03T04:32:32.552Z,97780.00
2022-11-03T04:35:01.204Z,97775.00
2022-11-03T04:37:30.197Z,97773.00
2022-11-03T04:40:01.502Z,97751.00
2022-11-03T04:42:34.426Z,97756.00
2022-11-03T04:45:15.452Z,97760.00
2022-11-03T04:47:43.610Z,97743.00
2022-11-03T04:50:19.722Z,97739.00
2022-11-03T04:52:49.038Z,97746.00
2022-11-03T04:55:19.699Z,97741.00
2022-11-03T04:57:49.296Z,97733.00
2022-11-03T05:00:21.278Z,97727.00
2022-11-03T05:02:55.858Z,97742.00
2022-11-03T05:05:27.142Z,97735.00
2022-11-03T05:07:58.016Z,97724.00
2022-11-03T05:10:30.212Z,97716.00
2022-11-03T05:13:01.561Z,97719.00
2022-11-03T05:15:36.584Z,97709.00
2022-11-03T05:18:17.142Z,97716.00
2022-11-03T05:20:52.225Z,97712.00
2022-11-03T05:23:23.668Z,97698.00
2022-11-03T05:25:54.895Z,97704.00
2022-11-03T05:28:27.174Z,97705.00
2022-11-03T05:30:57.426Z,97687.00
2022-11-03T05:33:31.874Z,97679.00
2022-11-03T05:36:15.163Z,97680.00
2022-11-03T05:38:43.901Z,97680.00
2022-11-03T05:41:21.956Z,97677.00
2022-11-03T05:43:58.381Z,97670.00
2022-11-03T05:46:34.490Z,97656.00
2022-11-03T05:49:03.824Z,97664.00
2022-11-03T05:51:37.629Z,97671.00
2022-11-03T05:54:21.390Z,97673.00
2022-11-03T06:01:27.380Z,97650.00
2022-11-03T06:03:57.520Z,97653.00
2022-11-03T06:06:32.467Z,97662.00
2022-11-03T06:09:04.236Z,97645.00
2022-11-03T06:11:37.176Z,97636.00
2022-11-03T06:14:22.848Z,97628.00
2022-11-03T06:16:57.209Z,97631.00
2022-11-03T06:19:32.340Z,97638.00
2022-11-03T06:22:09.275Z,97620.00
2022-11-03T06:24:37.560Z,97630.00
2022-11-03T06:27:05.759Z,97640.00
2022-11-03T06:29:35.263Z,97634.00
2022-11-03T06:32:03.498Z,97643.00
2022-11-03T06:34:42.483Z,97633.00
2022-11-03T06:37:33.576Z,97624.00
2022-11-03T06:40:31.316Z,97638.00
2022-11-03T06:43:00.092Z,97633.00
2022-11-03T06:45:29.460Z,97621.00
2022-11-03T06:47:57.592Z,97630.00
2022-11-03T06:50:30.868Z,97628.00
2022-11-03T06:53:02.702Z,97636.00
2022-11-03T06:55:34.156Z,97632.00
2022-11-03T06:58:13.185Z,97625.00
2022-11-03T07:00:48.871Z,97635.00
2022-11-03T07:03:25.217Z,97632.00
2022-11-03T07:06:03.411Z,97632.00
2022-11-03T07:08:38.346Z,97630.00
2022-11-03T07:11:16.313Z,97634.00
2022-11-03T07:13:44.909Z,97617.00
2022-11-03T07:16:22.868Z,97623.00
2022-11-03T07:18:51.031Z,97613.00
2022-11-03T07:21:39.218Z,97609.00
2022-11-03T07:24:20.593Z,97611.00
2022-11-03T07:26:50.259Z,97594.00
2022-11-03T07:29:22.814Z,97606.00
2022-11-03T07:31:55.236Z,97591.00
2022-11-03T07:34:27.731Z,97590.00
2022-11-03T07:36:59.359Z,97597.00
2022-11-03T07:39:35.222Z,97590.00
2022-11-03T07:42:10.712Z,97592.00
2022-11-03T07:44:41.759Z,97579.00
2022-11-03T07:47:15.250Z,97580.00
2022-11-03T07:49:44.131Z,97569.00
2022-11-03T07:52:17.625Z,97567.00
2022-11-03T07:54:45.755Z,97564.00
2022-11-03T07:57:23.018Z,97562.00
2022-11-03T07:59:54.894Z,97557.00
2022-11-03T08:02:32.691Z,97542.00
2022-11-03T08:05:01.404Z,97550.00
2022-11-03T08:07:32.633Z,97538.00
2022-11-03T08:10:00.845Z,97525.00
2022-11-03T08:12:29.066Z,97521.00
2022-11-03T08:14:57.219Z,97513.00
2022-11-03T08:17:25.422Z,97503.00
2022-11-03T08:19:53.764Z,97502.00
2022-11-03T08:22:23.153Z,97500.00
2022-11-03T08:24:52.784Z,97505.00
2022-11-03T08:27:20.992Z,97497.00
2022-11-03T08:29:49.369Z,97500.00
2022-11-03T08:32:17.638Z,97492.00
2022-11-03T08:34:45.754Z,97491.00
2022-11-03T08:37:13.850Z,97485.00
2022-11-03T08:39:41.963Z,97479.00
2022-11-03T08:42:11.396Z,97477.00
2022-11-03T08:44:41.246Z,97468.00
2022-11-03T08:47:09.324Z,97458.00
2022-11-03T08:49:37.461Z,97459.00
2022-11-03T08:52:05.997Z,97449.00
2022-11-03T08:54:34.121Z,97442.00
2022-11-03T08:57:02.298Z,97433.00
2022-11-03T08:59:31.778Z,97434.00
2022-11-03T09:01:59.964Z,97428.00
2022-11-03T09:04:28.124Z,97433.00
2022-11-03T09:06:56.287Z,97432.00
2022-11-03T09:12:12.779Z,97434.00
2022-11-03T09:14:42.327Z,97437.00
2022-11-03T09:17:10.461Z,97420.00
2022-11-03T09:19:38.895Z,97409.00
2022-11-03T09:22:07.115Z,97393.00
2022-11-03T09:24:35.273Z,97393.00
2022-11-03T09:27:04.772Z,97409.00
2022-11-03T09:29:58.481Z,97385.00
2022-11-03T09:32:23.658Z,97396.00
2022-11-03T09:34:51.966Z,97380.00
2022-11-03T09:37:20.345Z,97376.00
2022-11-03T09:39:48.452Z,97370.00
2022-11-03T09:42:18.550Z,97359.00
2022-11-03T09:44:48.999Z,97374.00
2022-11-03T09:47:25.497Z,97368.00
2022-11-03T09:49:53.933Z,97357.00
2022-11-03T09:52:24.954Z,97371.00
2022-11-03T09:54:56.261Z,97361.00
2022-11-03T09:57:28.580Z,97362.00
2022-11-03T09:59:57.155Z,97353.00
2022-11-03T10:02:30.683Z,97371.00
2022-11-03T10:05:06.808Z,97358.00
2022-11-03T10:07:38.042Z,97363.00
2022-11-03T10:10:07.575Z,97354.00
2022-11-03T10:12:38.794Z,97349.00
2022-11-03T10:15:15.343Z,97342.00
2022-11-03T10:17:46.023Z,97335.00
2022-11-03T10:20:17.355Z,97327.00
2022-11-03T10:22:47.629Z,97308.00
2022-11-03T10:25:37.717Z,97310.00
2022-11-03T10:28:22.097Z,97311.00
2022-11-03T10:31:13.219Z,97326.00
2022-11-03T10:33:53.653Z,97335.00
2022-11-03T10:36:26.597Z,97322.00
2022-11-03T10:38:55.616Z,97326.00
2022-11-03T10:41:26.852Z,97328.00
2022-11-03T10:44:05.980Z,97313.00
2022-11-03T10:46:51.606Z,97310.00
2022-11-03T10:49:21.931Z,97315.00
2022-11-03T10:51:53.239Z,97300.00
2022-11-03T10:54:24.826Z,97318.00
2022-11-03T10:56:53.828Z,97306.00
2022-11-03T10:59:31.316Z,97306.00
2022-11-03T11:02:00.007Z,97285.00
2022-11-03T11:04:29.764Z,97287.00
2022-11-03T11:06:57.963Z,97277.00
2022-11-03T11:09:29.205Z,97281.00
2022-11-03T11:12:03.141Z,97283.00
2022-11-03T11:14:55.298Z,97272.00
2022-11-03T11:17:49.355Z,97262.00
2022-11-03T11:20:46.042Z,97271.00
2022-11-03T11:23:52.673Z,97260.00
2022-11-03T11:26:42.438Z,97264.00
2022-11-03T11:29:46.126Z,97263.00
2022-11-03T11:32:57.366Z,97238.00
2022-11-03T11:36:28.653Z,97241.00
2022-11-03T11:39:03.483Z,97233.00
2022-11-03T11:42:07.735Z,97230.00
2022-11-03T11:44:59.364Z,97234.00
2022-11-03T11:47:50.387Z,97222.00
2022-11-03T11:50:33.008Z,97213.00
2022-11-03T11:53:19.494Z,97213.00
2022-11-03T11:55:55.985Z,97211.00
2022-11-03T11:58:35.444Z,97217.00
2022-11-03T12:01:06.855Z,97202.00
2022-11-03T12:03:45.258Z,97210.00
2022-11-03T12:06:14.791Z,97202.00
2022-11-03T12:08:44.232Z,97196.00
2022-11-03T12:11:14.650Z,97192.00
2022-11-03T12:13:51.122Z,97184.00
2022-11-03T12:16:30.938Z,97181.00
2022-11-03T12:19:39.473Z,97157.00
2022-11-03T12:22:10.937Z,97164.00
2022-11-03T12:24:52.063Z,97155.00
2022-11-03T12:27:43.195Z,97152.00
2022-11-03T12:30:20.397Z,97145.00
2022-11-03T12:32:49.298Z,97145.00
2022-11-03T12:35:17.902Z,97136.00
2022-11-03T12:37:46.171Z,97131.00
2022-11-03T12:40:15.214Z,97121.00
2022-11-03T12:42:44.809Z,97125.00
2022-11-03T12:45:14.263Z,97126.00
2022-11-03T12:47:42.526Z,97127.00
2022-11-03T12:50:11.269Z,97116.00
2022-11-03T12:52:39.452Z,97109.00
2022-11-03T12:55:08.335Z,97108.00
2022-11-03T12:57:36.417Z,97116.00
2022-11-03T13:00:07.846Z,97105.00
2022-11-03T13:02:36.069Z,97101.00
2022-11-03T13:05:04.718Z,97098.00
2022-11-03T13:07:35.068Z,97096.00
2022-11-03T13:10:04.751Z,97082.00
2022-11-03T13:12:32.989Z,97092.00
2022-11-03T13:15:02.981Z,97081.00
2022-11-03T13:17:52.103Z,97079.00
2022-11-03T13:20:20.567Z,97059.00
2022-11-03T13:22:48.763Z,97054.00
2022-11-03T13:25:17.719Z,97044.00
2022-11-03T13:27:45.889Z,97045.00
2022-11-03T13:30:14.601Z,97049.00
2022-11-03T13:32:44.020Z,97047.00
2022-11-03T13:35:14.097Z,97034.00
2022-11-03T13:37:42.696Z,97037.00
2022-11-03T13:40:35.546Z,97035.00
2022-11-03T13:43:01.740Z,97021.00
2022-11-03T13:45:29.925Z,97021.00
2022-11-03T13:50:50.720Z,97023.00
2022-11-03T13:56:12.841Z,97001.00
2022-11-03T14:01:33.958Z,97005.00
2022-11-03T14:06:51.759Z,97007.00
2022-11-03T14:09:19.990Z,96996.00
2022-11-03T14:12:05.955Z,97012.00
2022-11-03T14:14:34.170Z,97011.00
2022-11-03T14:17:02.352Z,96996.00
2022-11-03T14:19:39.628Z,96978.00
2022-11-03T14:22:11.171Z,96982.00
2022-11-03T14:24:39.333Z,96974.00
2022-11-03T14:27:07.533Z,96962.00
2022-11-03T14:29:35.856Z,96960.00
2022-11-03T14:32:04.063Z,96954.00
2022-11-03T14:34:33.976Z,96967.00
2022-11-03T14:37:02.326Z,96960.00
2022-11-03T14:39:30.445Z,96943.00
2022-11-03T14:42:03.497Z,96950.00
2022-11-03T14:44:32.742Z,96948.00
2022-11-03T14:47:02.350Z,96945.00
2022-11-03T14:49:33.509Z,96938.00
2022-11-03T14:52:03.483Z,96941.00
2022-11-03T14:54:32.583Z,96937.00
2022-11-03T14:57:01.035Z,96935.00
2022-11-03T14:59:29.536Z,96928.00
2022-11-03T15:01:59.064Z,96920.00
2022-11-03T15:04:27.890Z,96915.00
2022-11-03T15:06:57.339Z,96916.00
2022-11-03T15:09:25.461Z,96908.00
2022-11-03T15:11:53.651Z,96894.00
2022-11-03T15:14:21.809Z,96899.00
2022-11-03T15:16:49.969Z,96902.00
2022-11-03T15:19:18.198Z,96888.00
2022-11-03T15:21:46.499Z,96884.00
2022-11-03T15:27:05.615Z,96865.00
2022-11-03T15:29:33.776Z,96861.00
2022-11-03T15:32:01.933Z,96859.00
2022-11-03T15:34:30.236Z,96841.00
2022-11-03T15:36:58.410Z,96836.00
2022-11-03T15:39:29.660Z,96839.00
2022-11-03T15:41:59.921Z,96821.00
2022-11-03T15:44:28.107Z,96808.00
2022-11-03T15:46:56.214Z,96821.00
2022-11-03T15:49:24.504Z,96804.00
2022-11-03T15:51:52.616Z,96804.00
2022-11-03T15:54:20.732Z,96811.00
2022-11-03T15:56:50.228Z,96798.00
2022-11-03T15:59:19.026Z,96792.00
2022-11-03T16:01:47.480Z,96780.00
2022-11-03T16:04:16.629Z,96794.00
2022-11-03T16:09:33.356Z,96781.00
2022-11-03T16:12:03.389Z,96783.00
2022-11-03T16:14:31.589Z,96773.00
2022-11-03T16:16:59.889Z,96774.00
2022-11-03T16:19:28.078Z,96768.00
2022-11-03T16:21:56.240Z,96754.00
2022-11-03T16:24:29.663Z,96759.00
2022-11-03T16:27:05.006Z,96760.00
2022-11-03T16:29:33.195Z,96762.00
2022-11-03T16:32:01.659Z,96757.00
2022-11-03T16:34:29.837Z,96750.00
2022-11-03T16:36:58.280Z,96749.00
2022-11-03T16:39:26.537Z,96744.00
2022-11-03T16:41:55.002Z,96755.00
2022-11-03T16:44:24.684Z,96750.00
2022-11-03T16:46:53.103Z,96728.00
2022-11-03T16:49:21.789Z,96742.00
2022-11-03T16:51:50.053Z,96730.00
2022-11-03T16:54:18.265Z,96724.00
2022-11-03T16:56:50.571Z,96716.00
2022-11-03T16:59:24.260Z,96718.00
2022-11-03T17:01:54.272Z,96708.00
2022-11-03T17:04:23.384Z,96702.00
2022-11-03T17:06:51.601Z,96704.00
2022-11-03T17:09:20.845Z,96698.00
2022-11-03T17:11:49.019Z,96684.00
2022-11-03T17:14:17.166Z,96691.00
2022-11-03T17:16:47.071Z,96687.00
2022-11-03T17:19:17.103Z,96677.00
2022-11-03T17:21:45.313Z,96682.00
2022-11-03T17:24:13.584Z,96670.00
2022-11-03T17:26:55.682Z,96664.00
2022-11-03T17:29:31.429Z,96668.00
2022-11-03T17:31:59.962Z,96676.00
2022-11-03T17:34:29.719Z,96677.00
2022-11-03T17:36:59.049Z,96667.00
2022-11-03T17:39:33.567Z,96671.00
2022-11-03T17:42:19.718Z,96671.00
2022-11-03T17:44:50.812Z,96644.00
2022-11-03T17:47:21.002Z,96648.00
2022-11-03T17:49:51.796Z,96644.00
2022-11-03T17:52:26.868Z,96636.00
2022-11-03T17:54:58.922Z,96622.00
2022-11-03T17:57:28.637Z,96623.00
2022-11-03T18:00:01.251Z,96607.00
2022-11-03T18:02:33.339Z,96611.00
2022-11-03T18:05:21.943Z,96609.00
2022-11-03T18:07:50.889Z,96597.00
2022-11-03T18:10:19.116Z,96598.00
2022-11-03T18:13:08.872Z,96578.00
2022-11-03T18:15:39.117Z,96576.00
2022-11-03T18:18:16.255Z,96579.00
2022-11-03T18:20:53.918Z,96571.00
2022-11-03T18:23:25.391Z,96560.00
2022-11-03T18:25:55.408Z,96555.00
2022-11-03T18:28:23.695Z,96553.00
2022-11-03T18:30:55.038Z,96560.00
2022-11-03T18:33:27.020Z,96549.00
2022-11-03T18:35:58.089Z,96537.00
2022-11-03T18:38:27.216Z,96546.00
2022-11-03T18:40:56.031Z,96528.00
2022-11-03T18:43:27.095Z,96548.00
2022-11-03T18:45:55.534Z,96535.00
2022-11-03T18:48:23.988Z,96538.00
2022-11-03T18:50:55.323Z,96535.00
2022-11-03T18:53:27.494Z,96525.00
2022-11-03T18:56:00.926Z,96518.00
2022-11-03T18:58:29.228Z,96523.00
2022-11-03T19:00:57.519Z,96523.00
2022-11-03T19:03:25.758Z,96501.00
2022-11-03T19:05:54.547Z,96503.00
2022-11-03T19:08:29.864Z,96511.00
2022-11-03T19:11:03.611Z,96517.00
2022-11-03T19:13:37.533Z,96499.00
2022-11-03T19:16:16.479Z,96492.00
2022-11-03T19:18:46.477Z,96491.00
2022-11-03T19:21:18.116Z,96476.00
2022-11-03T19:23:49.102Z,96465.00
2022-11-03T19:26:23.409Z,96462.00
2022-11-03T19:28:56.753Z,96452.00
2022-11-03T19:31:32.315Z,96461.00
2022-11-03T19:34:01.384Z,96451.00
2022-11-03T19:36:31.286Z,96448.00
2022-11-03T19:39:01.665Z,96445.00
2022-11-03T19:41:47.589Z,96445.00
2022-11-03T19:44:16.004Z,96440.00
2022-11-03T19:46:44.359Z,96426.00
2022-11-03T19:49:15.365Z,96429.00
2022-11-03T19:51:43.731Z,96411.00
2022-11-03T19:54:18.604Z,96406.00
2022-11-03T19:56:47.428Z,96399.00
2022-11-03T19:59:18.021Z,96404.00
2022-11-03T20:01:46.415Z,96403.00
2022-11-03T20:04:14.708Z,96432.00
2022-11-03T20:06:42.996Z,96418.00
2022-11-03T20:09:18.906Z,96404.00
2022-11-03T20:11:47.538Z,96408.00
2022-11-03T20:14:20.236Z,96410.00
2022-11-03T20:16:48.546Z,96392.00
2022-11-03T20:19:16.784Z,96400.00
2022-11-03T20:21:48.658Z,96396.00
2022-11-03T20:24:19.871Z,96387.00
2022-11-03T20:26:48.199Z,96395.00
2022-11-03T20:29:17.084Z,96395.00
2022-11-03T20:31:46.044Z,96393.00
2022-11-03T20:34:15.677Z,96388.00
2022-11-03T20:36:44.862Z,96392.00
2022-11-03T20:39:18.493Z,96400.00
2022-11-03T20:41:52.199Z,96405.00
2022-11-03T20:44:20.541Z,96398.00
2022-11-03T20:46:48.776Z,96389.00
2022-11-03T20:49:17.067Z,96366.00
2022-11-03T20:51:47.843Z,96368.00
2022-11-03T20:54:20.076Z,96369.00
2022-11-03T20:56:49.698Z,96358.00
2022-11-03T20:59:21.325Z,96345.00
2022-11-03T21:01:50.121Z,96349.00
2022-11-03T21:04:21.495Z,96359.00
2022-11-03T21:06:50.219Z,96343.00
2022-11-03T21:09:20.349Z,96358.00
2022-11-03T21:11:53.040Z,96348.00
2022-11-03T21:14:26.274Z,96330.00
2022-11-03T21:17:12.034Z,96331.00
2022-11-03T21:19:57.691Z,96320.00
2022-11-03T21:25:24.051Z,96330.00
2022-11-03T21:27:54.693Z,96339.00
2022-11-03T21:30:23.582Z,96325.00
2022-11-03T21:32:52.541Z,96333.00
2022-11-03T21:35:23.076Z,96336.00
2022-11-03T21:37:51.478Z,96340.00
2022-11-03T21:40:19.813Z,96329.00
2022-11-03T21:43:05.756Z,96332.00
2022-11-03T21:45:35.935Z,96349.00
2022-11-03T21:48:22.560Z,96359.00
2022-11-03T21:50:50.941Z,96337.00
2022-11-03T21:53:19.119Z,96344.00
2022-11-03T21:55:49.423Z,96340.00
2022-11-03T21:58:17.716Z,96336.00
2022-11-03T22:00:47.603Z,96321.00
2022-11-03T22:03:15.954Z,96309.00
2022-11-03T22:05:44.171Z,96316.00
2022-11-03T22:08:12.397Z,96319.00
2022-11-03T22:10:41.108Z,96302.00
2022-11-03T22:13:09.727Z,96310.00
2022-11-03T22:15:55.981Z,96314.00
2022-11-03T22:18:25.573Z,96326.00
2022-11-03T22:21:11.341Z,96328.00
2022-11-03T22:23:56.924Z,96335.00
2022-11-03T22:26:41.943Z,96345.00
2022-11-03T22:29:42.090Z,96340.00
2022-11-03T22:32:15.708Z,96346.00
2022-11-03T22:35:02.729Z,96332.00
2022-11-03T22:40:16.200Z,96328.00
2022-11-03T22:43:02.701Z,96337.00
2022-11-03T22:45:44.938Z,96345.00
2022-11-03T22:48:13.632Z,96372.00
2022-11-03T22:50:43.279Z,96368.00
2022-11-03T22:53:28.987Z,96354.00
2022-11-03T22:55:57.141Z,96378.00
2022-11-03T22:58:29.394Z,96364.00
2022-11-03T23:00:58.727Z,96371.00
2022-11-03T23:03:27.024Z,96371.00
2022-11-03T23:06:02.094Z,96359.00
2022-11-03T23:08:32.796Z,96346.00
2022-11-03T23:11:15.873Z,96350.00
2022-11-03T23:13:45.635Z,96357.00
2022-11-03T23:16:17.807Z,96358.00
2022-11-03T23:19:05.455Z,96370.00
2022-11-03T23:21:36.690Z,96389.00
2022-11-03T23:24:23.585Z,96395.00
2022-11-03T23:26:52.267Z,96390.00
2022-11-03T23:29:20.454Z,96399.00
2022-11-03T23:31:48.969Z,96389.00
2022-11-03T23:34:17.308Z,96414.00
2022-11-03T23:36:46.867Z,96416.00
2022-11-03T23:39:17.225Z,96408.00
2022-11-03T23:41:46.267Z,96414.00
2022-11-03T23:44:16.408Z,96404.00
2022-11-03T23:47:03.098Z,96412.00
2022-11-03T23:49:31.517Z,96405.00
2022-11-03T23:52:01.037Z,96402.00
2022-11-03T23:54:29.363Z,96393.00
2022-11-03T23:57:15.353Z,96408.00
